This is the latest recevied weather packets stored in our database for station/object W6ZZY. If no packets are shown the sender has not sent any weather packets the latest 10 day(s).
| Time | Temp. | Humidity | Pressure | Rain* | Wind** | Luminosity | Snow |
|---|---|---|---|---|---|---|---|
| 1777524025 | 12.22° C | 79% | 1019.2 hPa | 0 mm | - | - | - |
| 1777522816 | 12.78° C | 79% | 1019.1 hPa | 0 mm | - | - | - |
| 1777522230 | 12.78° C | 79% | 1019.1 hPa | 0 mm | - | - | - |
| 1777519848 | 14.44° C | 80% | 1018.9 hPa | 0 mm | - | - | - |
| 1777515632 | 15.56° C | 78% | 1018.7 hPa | 0 mm | - | - | - |
| 1777514421 | 16.67° C | 74% | 1018.8 hPa | 0 mm | - | - | - |
| 1777513816 | 17.22° C | 75% | 1018.8 hPa | 0 mm | - | - | - |
| 1777508428 | 17.22° C | 73% | 1019.2 hPa | 0 mm | - | - | - |
| 1777503632 | 18.89° C | 70% | 1020 hPa | 0 mm | - | - | - |
| 1777500025 | 20.56° C | 66% | 1020.6 hPa | 0 mm | - | - | - |
| 1777495835 | 20° C | 67% | 1020.7 hPa | 0 mm | - | - | - |
| 1777493434 | 20° C | 67% | 1020.7 hPa | 0 mm | - | - | - |
| 1777492223 | 20° C | 68% | 1020.9 hPa | 0 mm | - | - | - |
| 1777489823 | 19.44° C | 70% | 1021.3 hPa | 0 mm | - | - | - |
| 1777487423 | 18.33° C | 74% | 1021.7 hPa | 0 mm | - | - | - |
| 1777485626 | 17.78° C | 76% | 1021.6 hPa | 0 mm | - | - | - |
| 1777485021 | 17.78° C | 76% | 1021.5 hPa | 0 mm | - | - | - |
| 1777484435 | 17.78° C | 77% | 1021.6 hPa | 0 mm | - | - | - |
| 1777480822 | 16.11° C | 82% | 1021.8 hPa | 0 mm | - | - | - |
| 1777476018 | 12.78° C | 95% | 1021.7 hPa | 0 mm | - | - | - |
| 1777473616 | 11.11° C | 99% | 1021.5 hPa | 0 mm | - | - | - |
| 1777473031 | 10.56° C | 98% | 1021.5 hPa | 0 mm | - | - | - |
| 1777471819 | 10° C | 98% | 1021.1 hPa | 0 mm | - | - | - |
| 1777464050 | 10° C | 98% | 1021.2 hPa | 0 mm | - | - | - |
| 1777461649 | 10.56° C | 98% | 1021.5 hPa | 0 mm | - | - | - |
* Rain latest hour (hover to see other rain measurements)
** Current wind speed in m/s (hover to see current wind gust speed)